createdAt,value
2019-04-28T00:01:38.452Z,1.35
2019-04-28T00:04:07.812Z,1.10
2019-04-28T00:06:36.950Z,1.50
2019-04-28T00:09:08.627Z,1.30
2019-04-28T00:11:38.844Z,1.07
2019-04-28T00:14:08.501Z,1.00
2019-04-28T00:16:37.819Z,1.20
2019-04-28T00:19:07.248Z,1.32
2019-04-28T00:21:43.934Z,0.93
2019-04-28T00:24:32.853Z,0.85
2019-04-28T00:27:03.561Z,0.82
2019-04-28T00:29:40.269Z,0.80
2019-04-28T00:32:03.668Z,0.85
2019-04-28T00:34:32.831Z,0.82
2019-04-28T00:37:03.683Z,0.70
2019-04-28T00:39:33.042Z,1.15
2019-04-28T00:42:03.345Z,1.17
2019-04-28T00:44:32.732Z,0.80
2019-04-28T00:47:01.915Z,1.15
2019-04-28T00:49:46.489Z,0.90
2019-04-28T00:52:17.025Z,0.85
2019-04-28T00:54:47.422Z,0.93
2019-04-28T00:57:16.571Z,1.22
2019-04-28T00:59:55.181Z,1.32
2019-04-28T01:02:21.060Z,1.20
2019-04-28T01:04:51.427Z,1.20
2019-04-28T01:07:21.290Z,1.20
2019-04-28T01:09:51.715Z,1.20
2019-04-28T01:12:21.430Z,1.30
2019-04-28T01:14:54.545Z,1.10
2019-04-28T01:17:27.000Z,1.30
2019-04-28T01:20:00.805Z,1.20
2019-04-28T01:22:30.097Z,1.40
2019-04-28T01:24:59.795Z,1.60
2019-04-28T01:27:30.613Z,1.40
2019-04-28T01:30:08.364Z,1.47
2019-04-28T01:32:35.621Z,1.30
2019-04-28T01:35:05.686Z,1.55
2019-04-28T01:37:35.019Z,1.50
2019-04-28T01:40:06.136Z,1.30
2019-04-28T01:42:35.350Z,1.30
2019-04-28T01:45:06.277Z,1.62
2019-04-28T01:47:35.425Z,1.42
2019-04-28T01:50:04.945Z,1.37
2019-04-28T01:52:34.317Z,1.27
2019-04-28T01:55:04.791Z,1.42
2019-04-28T01:57:34.012Z,1.12
2019-04-28T02:00:21.371Z,1.22
2019-04-28T02:02:40.714Z,1.30
2019-04-28T02:05:09.970Z,1.15
2019-04-28T02:07:40.753Z,1.10
2019-04-28T02:10:10.345Z,1.20
2019-04-28T02:12:40.363Z,0.90
2019-04-28T02:15:10.492Z,0.90
2019-04-28T02:17:40.250Z,1.10
2019-04-28T02:20:10.418Z,1.10
2019-04-28T02:22:41.394Z,1.30
2019-04-28T02:25:10.549Z,1.10
2019-04-28T02:27:40.134Z,1.00
2019-04-28T02:30:11.373Z,0.88
2019-04-28T02:32:41.405Z,0.90
2019-04-28T02:35:10.955Z,0.70
2019-04-28T02:37:40.739Z,0.80
2019-04-28T02:40:10.872Z,0.62
2019-04-28T02:42:41.155Z,0.90
2019-04-28T02:45:11.694Z,0.80
2019-04-28T02:47:45.722Z,0.57
2019-04-28T02:50:21.094Z,0.40
2019-04-28T02:52:55.022Z,0.62
2019-04-28T02:55:24.370Z,0.60
2019-04-28T02:57:53.528Z,0.42
2019-04-28T03:00:22.784Z,0.75
2019-04-28T03:02:51.981Z,0.50
2019-04-28T03:05:21.891Z,0.57
2019-04-28T03:07:52.095Z,0.40
2019-04-28T03:10:21.735Z,0.57
2019-04-28T03:12:51.933Z,0.60
2019-04-28T03:15:21.306Z,0.50
2019-04-28T03:17:53.000Z,0.53
2019-04-28T03:20:21.438Z,0.57
2019-04-28T03:22:51.387Z,0.50
2019-04-28T03:25:25.053Z,0.60
2019-04-28T03:28:04.799Z,0.60
2019-04-28T03:30:54.100Z,0.55
2019-04-28T03:33:26.146Z,1.15
2019-04-28T03:35:55.473Z,0.62
2019-04-28T03:38:24.644Z,0.60
2019-04-28T03:40:53.776Z,0.80
2019-04-28T03:43:22.938Z,0.70
2019-04-28T03:46:03.697Z,0.68
2019-04-28T03:48:33.704Z,0.80
2019-04-28T03:51:04.144Z,0.80
2019-04-28T03:53:33.302Z,0.60
2019-04-28T03:56:03.585Z,0.80
2019-04-28T03:58:32.720Z,0.82
2019-04-28T04:01:03.246Z,1.12
2019-04-28T04:03:32.699Z,1.00
2019-04-28T04:06:01.846Z,0.70
2019-04-28T04:08:31.257Z,0.85
2019-04-28T04:11:11.447Z,1.20
2019-04-28T04:13:45.199Z,0.85
2019-04-28T04:16:22.047Z,0.80
2019-04-28T04:19:00.654Z,0.90
2019-04-28T04:21:30.986Z,0.98
2019-04-28T04:24:00.990Z,1.40
2019-04-28T04:26:33.214Z,0.98
2019-04-28T04:29:01.338Z,1.25
2019-04-28T04:31:31.758Z,0.85
2019-04-28T04:34:03.430Z,0.85
2019-04-28T04:36:32.217Z,0.90
2019-04-28T04:39:02.061Z,0.98
2019-04-28T04:41:33.001Z,0.98
2019-04-28T04:44:02.157Z,1.00
2019-04-28T04:46:31.678Z,1.00
2019-04-28T04:49:01.064Z,1.07
2019-04-28T04:51:30.891Z,1.30
2019-04-28T04:54:01.523Z,1.10
2019-04-28T04:56:30.841Z,1.00
2019-04-28T04:59:02.663Z,1.20
2019-04-28T05:01:35.329Z,1.60
2019-04-28T05:04:07.182Z,0.80
2019-04-28T05:06:41.226Z,1.00
2019-04-28T05:09:10.333Z,1.55
2019-04-28T05:11:40.198Z,1.10
2019-04-28T05:14:11.672Z,1.10
2019-04-28T05:16:40.490Z,1.15
2019-04-28T05:19:10.380Z,0.90
2019-04-28T05:21:40.395Z,0.93
2019-04-28T05:24:27.782Z,1.65
2019-04-28T05:26:56.978Z,1.10
2019-04-28T05:29:27.054Z,1.10
2019-04-28T05:31:59.736Z,1.20
2019-04-28T05:34:29.708Z,0.80
2019-04-28T05:37:00.659Z,1.30
2019-04-28T05:39:29.994Z,1.10
2019-04-28T05:42:00.824Z,1.50
2019-04-28T05:44:31.967Z,0.98
2019-04-28T05:47:00.875Z,0.90
2019-04-28T05:49:43.826Z,1.12
2019-04-28T05:52:30.637Z,0.80
2019-04-28T05:55:20.700Z,1.10
2019-04-28T05:57:57.442Z,0.90
2019-04-28T06:00:31.265Z,0.90
2019-04-28T06:03:02.152Z,1.22
2019-04-28T06:05:31.972Z,0.90
2019-04-28T06:08:15.146Z,0.78
2019-04-28T06:10:44.287Z,1.45
2019-04-28T06:13:13.438Z,1.00
2019-04-28T06:15:42.606Z,1.00
2019-04-28T06:18:11.774Z,0.75
2019-04-28T06:20:40.921Z,1.00
2019-04-28T06:23:10.075Z,1.07
2019-04-28T06:25:39.254Z,1.00
2019-04-28T06:28:08.394Z,0.93
2019-04-28T06:30:37.580Z,1.10
2019-04-28T06:33:08.217Z,1.45
2019-04-28T06:35:37.614Z,1.00
2019-04-28T06:38:06.768Z,0.98
2019-04-28T06:40:35.953Z,0.90
2019-04-28T06:43:05.116Z,1.17
2019-04-28T06:45:35.451Z,1.37
2019-04-28T06:48:04.630Z,1.17
2019-04-28T06:50:33.801Z,1.10
2019-04-28T06:53:03.130Z,1.00
2019-04-28T06:55:32.296Z,1.17
2019-04-28T06:58:01.447Z,1.02
2019-04-28T07:00:30.575Z,1.07
2019-04-28T07:02:59.781Z,1.30
2019-04-28T07:05:28.937Z,1.10
2019-04-28T07:07:58.233Z,1.10
2019-04-28T07:10:27.465Z,1.12
2019-04-28T07:12:56.627Z,1.10
2019-04-28T07:15:25.793Z,1.15
2019-04-28T07:17:54.921Z,1.00
2019-04-28T07:20:32.645Z,1.02
2019-04-28T07:23:01.783Z,1.22
2019-04-28T07:25:31.131Z,1.20
2019-04-28T07:28:00.317Z,1.50
2019-04-28T07:30:29.671Z,1.27
2019-04-28T07:32:58.837Z,0.82
2019-04-28T07:35:28.051Z,0.95
2019-04-28T07:37:57.273Z,1.35
2019-04-28T07:40:26.636Z,1.07
2019-04-28T07:42:55.840Z,1.10
2019-04-28T07:45:25.141Z,1.05
2019-04-28T07:47:54.388Z,1.20
2019-04-28T07:50:23.621Z,1.20
2019-04-28T07:53:00.196Z,1.62
2019-04-28T07:55:29.356Z,1.17
2019-04-28T07:58:01.454Z,1.47
2019-04-28T08:00:37.351Z,0.93
2019-04-28T08:03:07.440Z,1.02
2019-04-28T08:05:36.622Z,1.12
2019-04-28T08:08:05.916Z,1.35
2019-04-28T08:10:35.353Z,1.42
2019-04-28T08:13:04.554Z,1.27
2019-04-28T08:15:33.834Z,0.80
2019-04-28T08:18:03.075Z,1.22
2019-04-28T08:20:32.606Z,1.12
2019-04-28T08:23:01.892Z,1.17
2019-04-28T08:25:31.102Z,2.42
2019-04-28T08:28:00.610Z,2.60
2019-04-28T08:30:29.824Z,1.00
2019-04-28T08:33:00.642Z,8.43
2019-04-28T08:35:29.936Z,1.15
2019-04-28T08:37:59.157Z,1.22
2019-04-28T08:40:28.443Z,1.22
2019-04-28T08:42:57.641Z,1.30
2019-04-28T08:45:29.468Z,0.88
2019-04-28T08:47:58.738Z,1.02
2019-04-28T08:50:27.957Z,1.55
2019-04-28T08:52:57.132Z,1.02
2019-04-28T08:55:27.514Z,1.12
2019-04-28T08:57:56.778Z,2.20
2019-04-28T09:00:25.920Z,1.40
2019-04-28T09:02:55.099Z,1.37
2019-04-28T09:05:24.362Z,2.15
2019-04-28T09:07:53.569Z,1.20
2019-04-28T09:10:22.849Z,1.50
2019-04-28T09:12:52.173Z,1.40
2019-04-28T09:15:21.398Z,1.35
2019-04-28T09:17:50.638Z,1.40
2019-04-28T09:20:19.815Z,1.00
2019-04-28T09:22:49.108Z,0.95
2019-04-28T09:25:18.276Z,1.27
2019-04-28T09:27:47.457Z,1.20
2019-04-28T09:30:17.763Z,1.42
2019-04-28T09:32:46.932Z,1.57
2019-04-28T09:35:16.259Z,3.05
2019-04-28T09:37:45.454Z,1.27
2019-04-28T09:40:16.092Z,1.52
2019-04-28T09:42:56.107Z,1.22
2019-04-28T09:45:36.130Z,0.80
2019-04-28T09:48:05.340Z,0.85
2019-04-28T09:50:34.464Z,2.85
2019-04-28T09:53:03.690Z,0.78
2019-04-28T09:55:32.839Z,1.12
2019-04-28T09:58:02.031Z,1.12
2019-04-28T10:00:31.192Z,1.07
2019-04-28T10:03:00.429Z,0.80
2019-04-28T10:05:29.656Z,1.27
2019-04-28T10:07:58.830Z,0.93
2019-04-28T10:10:27.977Z,1.30
2019-04-28T10:12:57.227Z,1.02
2019-04-28T10:15:26.475Z,1.22
2019-04-28T10:17:55.641Z,1.20
2019-04-28T10:20:24.897Z,1.20
2019-04-28T10:22:54.143Z,1.00
2019-04-28T10:25:23.350Z,1.00
2019-04-28T10:27:52.549Z,0.80
2019-04-28T10:30:21.847Z,1.80
2019-04-28T10:32:51.027Z,1.37
2019-04-28T10:35:20.205Z,1.32
2019-04-28T10:37:50.485Z,1.60
2019-04-28T10:40:34.901Z,1.70
2019-04-28T10:43:04.053Z,1.50
2019-04-28T10:45:35.113Z,1.42
2019-04-28T10:48:04.321Z,2.12
2019-04-28T10:50:33.539Z,2.10
2019-04-28T10:53:05.586Z,1.10
2019-04-28T10:55:34.763Z,1.30
2019-04-28T10:58:04.004Z,1.20
2019-04-28T11:00:34.901Z,1.22
2019-04-28T11:03:04.141Z,1.00
2019-04-28T11:05:35.915Z,1.02
2019-04-28T11:08:07.157Z,1.00
2019-04-28T11:10:36.412Z,1.47
2019-04-28T11:13:07.176Z,2.27
2019-04-28T11:15:37.414Z,1.07
2019-04-28T11:18:08.712Z,2.10
2019-04-28T11:20:37.976Z,1.27
2019-04-28T11:23:10.373Z,1.17
2019-04-28T11:25:41.036Z,1.67
2019-04-28T11:28:10.436Z,1.67
2019-04-28T11:30:39.694Z,1.65
2019-04-28T11:33:28.957Z,1.25
2019-04-28T11:36:06.473Z,1.40
2019-04-28T11:38:35.617Z,1.37
2019-04-28T11:41:05.197Z,1.30
2019-04-28T11:43:35.597Z,1.57
2019-04-28T11:46:06.623Z,1.82
2019-04-28T11:48:35.919Z,1.35
2019-04-28T11:51:05.561Z,1.70
2019-04-28T11:53:36.421Z,1.32
2019-04-28T11:56:05.674Z,2.12
2019-04-28T11:58:34.949Z,1.52
2019-04-28T12:01:05.450Z,1.15
2019-04-28T12:03:34.612Z,1.15
2019-04-28T12:06:03.857Z,1.37
2019-04-28T12:08:33.124Z,7.00
2019-04-28T12:11:09.953Z,1.42
2019-04-28T12:13:46.554Z,1.95
2019-04-28T12:16:23.107Z,1.50
2019-04-28T12:18:56.891Z,1.40
2019-04-28T12:21:26.167Z,6.00
2019-04-28T12:23:55.326Z,1.30
2019-04-28T12:26:24.569Z,2.30
2019-04-28T12:28:54.831Z,1.70
2019-04-28T12:31:24.318Z,1.75
2019-04-28T12:33:53.740Z,2.25
2019-04-28T12:36:22.906Z,2.00
2019-04-28T12:38:52.086Z,1.70
2019-04-28T12:41:21.316Z,1.57
2019-04-28T12:43:50.543Z,1.42
2019-04-28T12:46:19.841Z,2.58
2019-04-28T12:48:50.683Z,2.27
2019-04-28T12:51:19.930Z,1.80
2019-04-28T12:53:50.721Z,1.60
2019-04-28T12:56:19.886Z,1.50
2019-04-28T12:58:50.751Z,1.75
2019-04-28T13:01:24.361Z,1.90
2019-04-28T13:04:11.355Z,2.02
2019-04-28T13:06:40.525Z,2.00
2019-04-28T13:09:09.662Z,1.70
2019-04-28T13:11:40.541Z,1.87
2019-04-28T13:14:09.740Z,2.25
2019-04-28T13:16:39.017Z,1.87
2019-04-28T13:19:08.255Z,1.82
2019-04-28T13:21:40.133Z,2.87
2019-04-28T13:24:09.334Z,2.98
2019-04-28T13:26:38.648Z,2.20
2019-04-28T13:29:07.838Z,2.30
2019-04-28T13:31:36.998Z,1.85
2019-04-28T13:34:07.861Z,2.20
2019-04-28T13:36:37.029Z,2.40
2019-04-28T13:39:09.763Z,2.22
2019-04-28T13:41:38.957Z,2.02
2019-04-28T13:44:09.746Z,1.60
2019-04-28T13:46:39.063Z,1.80
2019-04-28T13:49:10.859Z,2.22
2019-04-28T13:51:40.056Z,2.22
2019-04-28T13:54:10.854Z,2.17
2019-04-28T13:56:40.053Z,2.25
2019-04-28T13:59:10.824Z,2.10
2019-04-28T14:01:53.933Z,1.98
2019-04-28T14:04:24.814Z,2.20
2019-04-28T14:06:55.061Z,1.87
2019-04-28T14:09:24.233Z,1.67
2019-04-28T14:11:53.514Z,2.15
2019-04-28T14:14:22.754Z,2.15
2019-04-28T14:16:52.044Z,1.92
2019-04-28T14:19:21.333Z,1.77
2019-04-28T14:22:09.972Z,2.50
2019-04-28T14:24:39.194Z,2.02
2019-04-28T14:27:08.422Z,1.60
2019-04-28T14:29:37.720Z,2.05
2019-04-28T14:32:06.944Z,2.55
2019-04-28T14:34:36.111Z,2.30
2019-04-28T14:37:06.413Z,2.27
2019-04-28T14:39:35.640Z,1.75
2019-04-28T14:42:04.857Z,1.62
2019-04-28T14:44:34.001Z,1.90
2019-04-28T14:47:03.237Z,1.60
2019-04-28T14:49:32.655Z,1.30
2019-04-28T14:52:01.904Z,1.50
2019-04-28T14:54:31.132Z,1.67
2019-04-28T14:57:00.342Z,1.47
2019-04-28T14:59:29.586Z,1.50
2019-04-28T15:02:12.683Z,2.00
2019-04-28T15:04:49.229Z,1.82
2019-04-28T15:07:35.440Z,1.82
2019-04-28T15:10:25.767Z,2.45
2019-04-28T15:12:56.688Z,2.70
2019-04-28T15:15:25.914Z,1.90
2019-04-28T15:17:55.093Z,2.37
2019-04-28T15:20:24.268Z,2.22
2019-04-28T15:22:54.592Z,2.20
2019-04-28T15:25:23.795Z,2.27
2019-04-28T15:27:53.034Z,2.10
2019-04-28T15:30:23.302Z,2.40
2019-04-28T15:32:52.556Z,2.50
2019-04-28T15:35:21.750Z,2.17
2019-04-28T15:37:50.912Z,1.85
2019-04-28T15:40:20.119Z,2.47
2019-04-28T15:42:49.337Z,1.90
2019-04-28T15:45:18.607Z,2.02
2019-04-28T15:47:47.777Z,2.05
2019-04-28T15:50:17.070Z,2.25
2019-04-28T15:52:46.306Z,2.87
2019-04-28T15:55:26.435Z,1.98
2019-04-28T15:57:55.665Z,2.42
2019-04-28T16:00:24.920Z,1.90
2019-04-28T16:02:54.077Z,1.87
2019-04-28T16:05:23.544Z,2.58
2019-04-28T16:07:52.702Z,2.20
2019-04-28T16:10:22.004Z,1.80
2019-04-28T16:12:51.186Z,1.85
2019-04-28T16:15:20.531Z,1.98
2019-04-28T16:17:49.746Z,2.50
2019-04-28T16:20:19.024Z,2.60
2019-04-28T16:22:48.320Z,3.02
2019-04-28T16:25:17.654Z,2.45
2019-04-28T16:27:47.166Z,2.30
2019-04-28T16:30:16.511Z,2.80
2019-04-28T16:32:45.731Z,2.77
2019-04-28T16:35:15.027Z,3.12
2019-04-28T16:37:44.193Z,2.25
2019-04-28T16:40:13.360Z,2.80
2019-04-28T16:42:43.749Z,2.58
2019-04-28T16:45:14.375Z,4.00
2019-04-28T16:47:44.599Z,2.95
2019-04-28T16:50:13.855Z,2.95
2019-04-28T16:52:43.042Z,3.55
2019-04-28T16:55:30.740Z,3.60
2019-04-28T16:58:13.986Z,2.77
2019-04-28T17:00:51.209Z,3.77
2019-04-28T17:03:21.668Z,3.62
2019-04-28T17:05:50.954Z,3.10
2019-04-28T17:08:20.427Z,3.80
2019-04-28T17:10:49.744Z,3.77
2019-04-28T17:13:19.064Z,2.67
2019-04-28T17:15:48.285Z,3.00
2019-04-28T17:18:17.899Z,2.35
2019-04-28T17:20:48.863Z,2.80
2019-04-28T17:23:18.770Z,2.22
2019-04-28T17:25:48.590Z,2.05
2019-04-28T17:28:17.864Z,2.58
2019-04-28T17:30:47.181Z,2.37
2019-04-28T17:33:16.581Z,2.10
2019-04-28T17:35:45.770Z,1.60
2019-04-28T17:38:15.362Z,1.92
2019-04-28T17:40:45.094Z,1.90
2019-04-28T17:43:14.546Z,2.12
2019-04-28T17:45:45.273Z,2.15
2019-04-28T17:48:16.115Z,2.27
2019-04-28T17:50:45.517Z,1.67
2019-04-28T17:53:14.798Z,2.27
2019-04-28T17:55:43.954Z,2.17
2019-04-28T17:58:13.225Z,2.45
2019-04-28T18:00:55.680Z,2.90
2019-04-28T18:03:38.589Z,2.50
2019-04-28T18:06:18.519Z,2.20
2019-04-28T18:08:47.802Z,2.60
2019-04-28T18:11:18.667Z,2.58
2019-04-28T18:13:48.218Z,3.05
2019-04-28T18:16:47.214Z,2.85
2019-04-28T18:19:19.703Z,2.08
2019-04-28T18:21:48.917Z,2.40
2019-04-28T18:24:18.203Z,2.83
2019-04-28T18:26:47.466Z,2.80
2019-04-28T18:29:16.898Z,2.60
2019-04-28T18:32:04.329Z,2.25
2019-04-28T18:34:47.181Z,2.45
2019-04-28T18:37:34.519Z,2.80
2019-04-28T18:40:22.011Z,2.55
2019-04-28T18:43:10.853Z,2.85
2019-04-28T18:45:40.079Z,3.27
2019-04-28T18:48:09.332Z,2.77
2019-04-28T18:50:38.570Z,3.05
2019-04-28T18:53:07.769Z,3.17
2019-04-28T18:55:37.128Z,2.85
2019-04-28T18:58:07.423Z,2.58
2019-04-28T19:00:38.459Z,2.52
2019-04-28T19:03:07.658Z,2.85
2019-04-28T19:05:38.769Z,2.62
2019-04-28T19:08:25.994Z,2.65
2019-04-28T19:10:56.914Z,2.90
2019-04-28T19:13:27.877Z,2.50
2019-04-28T19:16:04.841Z,2.60
2019-04-28T19:18:38.561Z,2.60
2019-04-28T19:21:07.862Z,3.02
2019-04-28T19:23:37.483Z,2.77
2019-04-28T19:26:06.872Z,2.98
2019-04-28T19:28:36.239Z,2.95
2019-04-28T19:31:05.712Z,2.67
2019-04-28T19:33:35.113Z,2.42
2019-04-28T19:36:04.444Z,2.80
2019-04-28T19:38:33.783Z,2.50
2019-04-28T19:41:03.024Z,2.60
2019-04-28T19:43:32.207Z,2.95
2019-04-28T19:47:44.414Z,2.45
2019-04-28T19:50:15.304Z,2.90
2019-04-28T19:52:44.565Z,2.20
2019-04-28T19:55:18.496Z,2.33
2019-04-28T19:57:52.092Z,2.45
2019-04-28T20:00:22.923Z,2.20
2019-04-28T20:02:52.326Z,2.47
2019-04-28T20:05:21.548Z,2.77
2019-04-28T20:07:50.838Z,2.22
2019-04-28T20:10:20.066Z,2.72
2019-04-28T20:12:49.363Z,2.60
2019-04-28T20:15:18.885Z,2.17
2019-04-28T20:17:48.213Z,2.45
2019-04-28T20:20:17.431Z,2.52
2019-04-28T20:22:46.743Z,2.55
2019-04-28T20:25:15.985Z,2.30
2019-04-28T20:27:45.362Z,2.42
2019-04-28T20:30:14.583Z,2.70
2019-04-28T20:32:45.474Z,2.40
2019-04-28T20:35:16.651Z,2.08
2019-04-28T20:37:47.681Z,2.45
2019-04-28T20:40:30.894Z,2.27
2019-04-28T20:43:07.166Z,2.37
2019-04-28T20:45:36.416Z,2.80
2019-04-28T20:48:05.716Z,2.30
2019-04-28T20:50:34.932Z,2.40
2019-04-28T20:53:04.271Z,2.02
2019-04-28T20:55:33.426Z,2.80
2019-04-28T20:58:02.580Z,2.20
2019-04-28T21:00:31.826Z,2.67
2019-04-28T21:03:01.267Z,2.55
2019-04-28T21:05:30.452Z,2.70
2019-04-28T21:07:59.614Z,2.65
2019-04-28T21:10:37.649Z,2.52
2019-04-28T21:12:59.739Z,2.25
2019-04-28T21:15:29.019Z,2.22
2019-04-28T21:17:58.178Z,2.65
2019-04-28T21:20:27.430Z,2.50
2019-04-28T21:22:56.642Z,2.47
2019-04-28T21:25:25.792Z,2.50
2019-04-28T21:27:54.929Z,2.55
2019-04-28T21:30:24.082Z,2.47
2019-04-28T21:32:53.305Z,2.65
2019-04-28T21:35:22.514Z,2.75
2019-04-28T21:37:51.673Z,2.85
2019-04-28T21:40:21.203Z,3.42
2019-04-28T21:43:03.908Z,2.92
2019-04-28T21:45:50.297Z,2.80
2019-04-28T21:48:37.076Z,2.77
2019-04-28T21:51:06.254Z,3.12
2019-04-28T21:53:35.430Z,2.62
2019-04-28T21:56:04.857Z,2.70
2019-04-28T21:58:34.975Z,2.50
2019-04-28T22:01:04.585Z,3.45
2019-04-28T22:03:35.332Z,3.00
2019-04-28T22:06:04.585Z,2.65
2019-04-28T22:08:33.801Z,2.50
2019-04-28T22:11:03.225Z,2.75
2019-04-28T22:13:32.456Z,2.60
2019-04-28T22:16:01.594Z,2.95
2019-04-28T22:18:30.761Z,2.75
2019-04-28T22:20:59.916Z,2.87
2019-04-28T22:23:33.681Z,2.80
2019-04-28T22:26:02.833Z,2.50
2019-04-28T22:28:32.009Z,2.55
2019-04-28T22:31:01.173Z,2.95
2019-04-28T22:33:30.391Z,2.17
2019-04-28T22:35:59.537Z,2.75
2019-04-28T22:38:28.679Z,2.50
2019-04-28T22:40:57.837Z,2.62
2019-04-28T22:43:27.157Z,2.67
2019-04-28T22:45:56.346Z,2.80
2019-04-28T22:48:26.425Z,3.25
2019-04-28T22:50:55.697Z,2.67
2019-04-28T22:53:26.538Z,2.40
2019-04-28T22:56:06.616Z,2.55
2019-04-28T22:58:37.420Z,3.10
2019-04-28T23:01:14.281Z,2.52
2019-04-28T23:03:52.010Z,2.60
2019-04-28T23:06:21.169Z,2.70
2019-04-28T23:08:50.320Z,2.70
2019-04-28T23:11:19.474Z,3.25
2019-04-28T23:13:48.622Z,2.30
2019-04-28T23:16:17.768Z,2.45
2019-04-28T23:18:46.988Z,2.52
2019-04-28T23:21:17.794Z,2.40
2019-04-28T23:23:48.033Z,2.80
2019-04-28T23:26:17.205Z,2.60
2019-04-28T23:28:46.476Z,2.52
2019-04-28T23:31:15.651Z,2.35
2019-04-28T23:33:44.844Z,2.80
2019-04-28T23:36:14.002Z,2.80
2019-04-28T23:38:43.154Z,2.90
2019-04-28T23:41:16.407Z,2.50
2019-04-28T23:43:45.551Z,2.40
2019-04-28T23:46:14.706Z,2.50
2019-04-28T23:48:43.844Z,2.60
2019-04-28T23:51:14.634Z,2.60
2019-04-28T23:54:03.898Z,3.10
2019-04-28T23:56:33.047Z,3.08
2019-04-28T23:59:02.199Z,2.52
